createdAt,value
2017-08-04T00:00:59.053Z,22.90
2017-08-04T00:03:26.958Z,22.80
2017-08-04T00:05:54.525Z,22.80
2017-08-04T00:08:22.101Z,22.80
2017-08-04T00:10:50.797Z,22.80
2017-08-04T00:13:18.356Z,22.80
2017-08-04T00:15:46.011Z,22.80
2017-08-04T00:18:13.943Z,22.80
2017-08-04T00:20:42.126Z,22.80
2017-08-04T00:23:09.799Z,22.70
2017-08-04T00:25:37.764Z,22.80
2017-08-04T00:28:05.313Z,22.70
2017-08-04T00:30:32.949Z,22.70
2017-08-04T00:33:00.957Z,22.70
2017-08-04T00:35:28.516Z,22.70
2017-08-04T00:37:56.093Z,22.70
2017-08-04T00:40:24.757Z,22.70
2017-08-04T00:42:52.307Z,22.60
2017-08-04T00:45:19.880Z,22.60
2017-08-04T00:47:47.909Z,22.60
2017-08-04T00:50:15.536Z,22.60
2017-08-04T00:52:43.103Z,22.60
2017-08-04T00:55:11.137Z,22.60
2017-08-04T00:57:38.702Z,22.60
2017-08-04T01:00:06.436Z,22.60
2017-08-04T01:02:34.535Z,22.60
2017-08-04T01:05:02.133Z,22.60
2017-08-04T01:07:29.736Z,22.50
2017-08-04T01:09:57.714Z,22.50
2017-08-04T01:12:25.276Z,22.50
2017-08-04T01:14:52.818Z,22.50
2017-08-04T01:17:20.743Z,22.50
2017-08-04T01:19:48.300Z,22.40
2017-08-04T01:22:15.880Z,22.40
2017-08-04T01:24:43.897Z,22.40
2017-08-04T01:27:11.451Z,22.40
2017-08-04T01:29:39.012Z,22.30
2017-08-04T01:32:07.067Z,22.30
2017-08-04T01:34:34.620Z,22.30
2017-08-04T01:37:02.180Z,22.30
2017-08-04T01:39:30.074Z,22.30
2017-08-04T01:41:57.647Z,22.30
2017-08-04T01:44:25.204Z,22.20
2017-08-04T01:46:53.259Z,22.20
2017-08-04T01:49:20.824Z,22.20
2017-08-04T01:51:48.390Z,22.20
2017-08-04T01:54:16.248Z,22.20
2017-08-04T01:56:43.811Z,22.20
2017-08-04T01:59:11.369Z,22.20
2017-08-04T02:01:39.441Z,22.20
2017-08-04T02:04:07.014Z,22.20
2017-08-04T02:06:34.573Z,22.20
2017-08-04T02:09:03.236Z,22.20
2017-08-04T02:11:30.791Z,22.20
2017-08-04T02:13:58.343Z,22.20
2017-08-04T02:16:26.233Z,22.20
2017-08-04T02:18:53.818Z,22.20
2017-08-04T02:21:21.391Z,22.20
2017-08-04T02:23:49.407Z,22.20
2017-08-04T02:26:16.970Z,22.20
2017-08-04T02:28:44.559Z,22.20
2017-08-04T02:31:13.222Z,22.20
2017-08-04T02:33:40.789Z,22.20
2017-08-04T02:36:08.339Z,22.20
2017-08-04T02:38:36.229Z,22.20
2017-08-04T02:41:04.577Z,22.10
2017-08-04T02:43:32.128Z,22.10
2017-08-04T02:46:00.027Z,22.10
2017-08-04T02:48:28.359Z,22.10
2017-08-04T02:50:55.920Z,22.10
2017-08-04T02:53:23.813Z,22.10
2017-08-04T02:55:51.358Z,22.10
2017-08-04T02:58:18.917Z,22.10
2017-08-04T03:00:46.804Z,22.00
2017-08-04T03:03:14.365Z,22.10
2017-08-04T03:05:41.958Z,22.00
2017-08-04T03:08:10.829Z,22.00
2017-08-04T03:10:39.144Z,22.10
2017-08-04T03:13:06.701Z,22.00
2017-08-04T03:15:34.624Z,22.00
2017-08-04T03:18:02.189Z,22.00
2017-08-04T03:20:29.752Z,22.00
2017-08-04T03:22:57.614Z,22.10
2017-08-04T03:25:25.180Z,22.00
2017-08-04T03:27:52.759Z,22.00
2017-08-04T03:30:20.813Z,22.00
2017-08-04T03:32:49.130Z,22.00
2017-08-04T03:35:16.711Z,22.00
2017-08-04T03:37:44.608Z,22.00
2017-08-04T03:40:12.155Z,22.00
2017-08-04T03:42:39.711Z,22.00
2017-08-04T03:45:07.558Z,22.10
2017-08-04T03:47:35.114Z,22.00
2017-08-04T03:50:02.674Z,22.10
2017-08-04T03:52:30.772Z,22.10
2017-08-04T03:54:58.345Z,22.10
2017-08-04T03:57:25.921Z,22.10
2017-08-04T03:59:54.576Z,22.10
2017-08-04T04:02:22.141Z,22.00
2017-08-04T04:04:49.686Z,22.10
2017-08-04T04:07:17.560Z,22.10
2017-08-04T04:09:45.108Z,22.10
2017-08-04T04:12:12.661Z,22.10
2017-08-04T04:14:40.542Z,22.10
2017-08-04T04:17:08.095Z,22.20
2017-08-04T04:19:35.672Z,22.20
2017-08-04T04:22:03.752Z,22.20
2017-08-04T04:24:31.300Z,22.20
2017-08-04T04:26:58.865Z,22.20
2017-08-04T04:29:26.711Z,22.10
2017-08-04T04:31:54.251Z,22.20
2017-08-04T04:34:21.809Z,22.20
2017-08-04T04:36:49.719Z,22.20
2017-08-04T04:39:17.248Z,22.20
2017-08-04T04:41:44.808Z,22.20
2017-08-04T04:44:12.691Z,22.30
2017-08-04T04:46:40.241Z,22.30
2017-08-04T04:49:07.814Z,22.30
2017-08-04T04:51:35.692Z,22.30
2017-08-04T04:54:03.263Z,22.30
2017-08-04T04:56:30.844Z,22.30
2017-08-04T04:58:58.736Z,22.30
2017-08-04T05:01:26.301Z,22.30
2017-08-04T05:03:53.860Z,22.30
2017-08-04T05:06:21.871Z,22.30
2017-08-04T05:08:50.195Z,22.40
2017-08-04T05:11:17.756Z,22.40
2017-08-04T05:13:45.673Z,22.40
2017-08-04T05:16:13.237Z,22.50
2017-08-04T05:18:40.793Z,22.50
2017-08-04T05:21:08.853Z,22.50
2017-08-04T05:23:36.418Z,22.60
2017-08-04T05:26:04.151Z,22.60
2017-08-04T05:28:32.063Z,22.60
2017-08-04T05:31:00.581Z,22.70
2017-08-04T05:33:28.130Z,22.70
2017-08-04T05:35:56.047Z,22.80
2017-08-04T05:38:23.599Z,22.80
2017-08-04T05:40:51.146Z,22.80
2017-08-04T05:43:19.028Z,22.90
2017-08-04T05:45:46.634Z,22.90
2017-08-04T05:48:14.207Z,23.00
2017-08-04T05:50:42.223Z,23.00
2017-08-04T05:53:09.823Z,23.10
2017-08-04T05:55:37.388Z,23.10
2017-08-04T05:58:05.316Z,23.20
2017-08-04T06:00:32.866Z,23.20
2017-08-04T06:03:00.420Z,23.20
2017-08-04T06:05:28.116Z,23.20
2017-08-04T06:07:55.688Z,23.20
2017-08-04T06:10:24.340Z,23.30
2017-08-04T06:12:51.913Z,23.20
2017-08-04T06:15:19.462Z,23.30
2017-08-04T06:17:47.104Z,23.40
2017-08-04T06:20:14.714Z,23.40
2017-08-04T06:22:42.594Z,23.40
2017-08-04T06:25:10.162Z,23.50
2017-08-04T06:27:37.715Z,23.60
2017-08-04T06:30:05.315Z,23.50
2017-08-04T06:32:32.859Z,23.50
2017-08-04T06:35:00.762Z,23.50
2017-08-04T06:37:28.333Z,23.50
2017-08-04T06:39:56.025Z,23.60
2017-08-04T06:42:23.613Z,23.70
2017-08-04T06:44:51.181Z,23.80
2017-08-04T06:47:19.074Z,23.80
2017-08-04T06:49:58.457Z,23.80
2017-08-04T06:52:38.159Z,23.80
2017-08-04T06:55:17.459Z,24.10
2017-08-04T06:57:45.360Z,24.40
2017-08-04T07:00:12.915Z,24.80
2017-08-04T07:02:40.487Z,25.10
2017-08-04T07:05:08.860Z,25.60
2017-08-04T07:07:36.680Z,25.60
2017-08-04T07:10:04.560Z,25.90
2017-08-04T07:12:32.321Z,26.10
2017-08-04T07:14:59.871Z,25.90
2017-08-04T07:17:27.482Z,25.80
2017-08-04T07:19:55.807Z,25.50
2017-08-04T07:22:23.696Z,25.50
2017-08-04T07:24:51.244Z,25.40
2017-08-04T07:27:18.827Z,25.50
2017-08-04T07:29:46.432Z,25.70
2017-08-04T07:32:14.013Z,25.70
2017-08-04T07:34:42.798Z,25.70
2017-08-04T07:37:10.413Z,25.60
2017-08-04T07:39:38.781Z,25.80
2017-08-04T07:42:06.560Z,25.80
2017-08-04T07:44:35.120Z,25.70
2017-08-04T07:47:02.955Z,25.70
2017-08-04T07:49:30.524Z,25.70
2017-08-04T07:51:58.079Z,25.90
2017-08-04T07:54:25.699Z,25.90
2017-08-04T07:56:54.208Z,25.90
2017-08-04T07:59:22.083Z,25.80
2017-08-04T08:01:49.644Z,26.00
2017-08-04T08:04:17.344Z,26.10
2017-08-04T08:06:44.950Z,26.10
2017-08-04T08:09:12.526Z,26.60
2017-08-04T08:11:40.536Z,26.90
2017-08-04T08:14:08.106Z,27.20
2017-08-04T08:16:35.675Z,27.00
2017-08-04T08:19:04.483Z,26.80
2017-08-04T08:21:32.067Z,26.70
2017-08-04T08:24:00.091Z,26.50
2017-08-04T08:26:28.424Z,26.60
2017-08-04T08:28:55.984Z,26.50
2017-08-04T08:31:23.580Z,27.00
2017-08-04T08:33:51.128Z,27.00
2017-08-04T08:36:18.999Z,27.10
2017-08-04T08:38:46.556Z,27.20
2017-08-04T08:41:14.168Z,27.10
2017-08-04T08:43:42.827Z,27.10
2017-08-04T08:46:10.425Z,27.00
2017-08-04T08:48:38.531Z,27.20
2017-08-04T08:51:06.145Z,27.50
2017-08-04T08:53:33.792Z,27.30
2017-08-04T08:56:01.409Z,26.90
2017-08-04T08:58:29.192Z,26.70
2017-08-04T09:00:57.252Z,26.80
2017-08-04T09:03:24.796Z,26.90
2017-08-04T09:05:52.405Z,27.00
2017-08-04T09:08:20.002Z,26.90
2017-08-04T09:10:47.568Z,26.70
2017-08-04T09:13:15.553Z,26.80
2017-08-04T09:15:43.127Z,27.10
2017-08-04T09:18:10.789Z,27.40
2017-08-04T09:20:38.385Z,27.40
2017-08-04T09:23:05.949Z,27.40
2017-08-04T09:25:33.854Z,27.40
2017-08-04T09:28:01.426Z,27.40
2017-08-04T09:30:29.002Z,27.40
2017-08-04T09:32:56.595Z,27.40
2017-08-04T09:35:24.442Z,27.30
2017-08-04T09:37:52.392Z,27.20
2017-08-04T09:40:19.956Z,27.20
2017-08-04T09:42:47.514Z,27.10
2017-08-04T09:45:15.127Z,27.10
2017-08-04T09:47:42.701Z,27.20
2017-08-04T09:50:10.586Z,27.30
2017-08-04T09:52:38.166Z,27.70
2017-08-04T09:55:05.745Z,28.10
2017-08-04T09:57:33.347Z,28.20
2017-08-04T10:00:00.908Z,28.10
2017-08-04T10:02:28.787Z,28.30
2017-08-04T10:04:56.437Z,28.20
2017-08-04T10:07:24.016Z,28.20
2017-08-04T10:09:51.837Z,28.30
2017-08-04T10:12:19.515Z,28.60
2017-08-04T10:14:47.362Z,28.80
2017-08-04T10:17:14.938Z,28.80
2017-08-04T10:19:42.522Z,28.90
2017-08-04T10:22:10.121Z,29.20
2017-08-04T10:24:38.450Z,29.30
2017-08-04T10:27:06.308Z,29.30
2017-08-04T10:29:33.877Z,29.30
2017-08-04T10:32:03.071Z,29.00
2017-08-04T10:34:30.713Z,29.00
2017-08-04T10:36:58.283Z,28.90
2017-08-04T10:39:26.186Z,28.80
2017-08-04T10:41:53.810Z,28.70
2017-08-04T10:44:21.452Z,28.60
2017-08-04T10:46:49.150Z,28.70
2017-08-04T10:49:16.721Z,28.70
2017-08-04T10:51:44.838Z,28.50
2017-08-04T10:54:12.427Z,28.50
2017-08-04T10:56:39.986Z,28.40
2017-08-04T10:59:07.600Z,28.40
2017-08-04T11:01:35.193Z,28.40
2017-08-04T11:04:03.197Z,28.50
2017-08-04T11:06:30.784Z,28.70
2017-08-04T11:08:58.340Z,28.80
2017-08-04T11:11:25.990Z,28.80
2017-08-04T11:13:53.568Z,28.80
2017-08-04T11:16:21.526Z,28.90
2017-08-04T11:18:49.070Z,29.00
2017-08-04T11:21:16.776Z,29.00
2017-08-04T11:23:44.395Z,29.00
2017-08-04T11:26:11.954Z,29.20
2017-08-04T11:28:39.826Z,29.40
2017-08-04T11:31:07.390Z,29.40
2017-08-04T11:33:34.979Z,29.30
2017-08-04T11:36:02.606Z,29.20
2017-08-04T11:38:30.169Z,29.10
2017-08-04T11:40:58.153Z,29.20
2017-08-04T11:43:25.721Z,29.20
2017-08-04T11:45:53.292Z,29.30
2017-08-04T11:48:21.640Z,29.50
2017-08-04T11:50:49.186Z,29.50
2017-08-04T11:53:17.281Z,29.50
2017-08-04T11:55:44.849Z,29.50
2017-08-04T11:58:12.394Z,29.50
2017-08-04T12:00:40.219Z,29.60
2017-08-04T12:03:07.779Z,29.70
2017-08-04T12:05:35.794Z,29.60
2017-08-04T12:08:03.358Z,29.60
2017-08-04T12:10:30.939Z,29.50
2017-08-04T12:12:58.537Z,29.50
2017-08-04T12:15:26.091Z,29.60
2017-08-04T12:17:53.954Z,29.70
2017-08-04T12:20:21.526Z,29.80
2017-08-04T12:22:49.078Z,29.80
2017-08-04T12:25:16.654Z,29.90
2017-08-04T12:27:44.224Z,29.90
2017-08-04T12:30:12.200Z,30.00
2017-08-04T12:32:39.763Z,30.10
2017-08-04T12:35:07.334Z,30.20
2017-08-04T12:37:35.777Z,30.30
2017-08-04T12:40:03.338Z,30.30
2017-08-04T12:42:31.219Z,30.30
2017-08-04T12:44:58.785Z,30.40
2017-08-04T12:47:26.325Z,30.50
2017-08-04T12:49:54.114Z,30.50
2017-08-04T12:52:21.688Z,30.60
2017-08-04T12:54:49.659Z,30.50
2017-08-04T12:57:18.003Z,30.50
2017-08-04T12:59:45.558Z,30.40
2017-08-04T13:02:13.156Z,30.40
2017-08-04T13:04:40.739Z,30.50
2017-08-04T13:07:08.766Z,30.40
2017-08-04T13:09:36.353Z,30.20
2017-08-04T13:12:03.928Z,30.30
2017-08-04T13:14:31.740Z,30.30
2017-08-04T13:16:59.299Z,30.50
2017-08-04T13:19:27.289Z,30.60
2017-08-04T13:21:54.862Z,30.90
2017-08-04T13:24:22.440Z,31.10
2017-08-04T13:26:50.125Z,31.00
2017-08-04T13:29:17.684Z,31.10
2017-08-04T13:31:45.864Z,31.30
2017-08-04T13:34:13.447Z,32.10
2017-08-04T13:36:41.797Z,32.40
2017-08-04T13:39:09.484Z,32.30
2017-08-04T13:41:37.048Z,32.00
2017-08-04T13:44:04.933Z,31.60
2017-08-04T13:46:32.649Z,31.30
2017-08-04T13:49:00.212Z,31.20
2017-08-04T13:51:27.821Z,31.00
2017-08-04T13:53:55.376Z,31.00
2017-08-04T13:56:23.434Z,31.00
2017-08-04T13:58:51.009Z,31.00
2017-08-04T14:01:18.574Z,31.10
2017-08-04T14:03:46.940Z,31.10
2017-08-04T14:06:14.493Z,31.10
2017-08-04T14:08:42.625Z,31.20
2017-08-04T14:11:10.219Z,31.40
2017-08-04T14:13:37.786Z,31.30
2017-08-04T14:16:05.388Z,31.70
2017-08-04T14:18:32.962Z,31.40
2017-08-04T14:21:01.457Z,31.10
2017-08-04T14:23:29.319Z,31.00
2017-08-04T14:25:57.085Z,30.90
2017-08-04T14:28:24.679Z,30.70
2017-08-04T14:30:52.260Z,30.70
2017-08-04T14:33:20.228Z,30.60
2017-08-04T14:35:48.573Z,31.20
2017-08-04T14:38:16.135Z,31.20
2017-08-04T14:40:43.747Z,31.20
2017-08-04T14:43:11.329Z,31.20
2017-08-04T14:45:39.338Z,31.20
2017-08-04T14:48:06.895Z,31.20
2017-08-04T14:50:34.489Z,31.00
2017-08-04T14:53:02.859Z,30.80
2017-08-04T14:55:30.410Z,30.80
2017-08-04T14:57:58.772Z,30.40
2017-08-04T15:00:26.340Z,30.40
2017-08-04T15:02:54.234Z,30.20
2017-08-04T15:05:21.836Z,30.10
2017-08-04T15:07:49.408Z,30.00
2017-08-04T15:10:17.009Z,29.90
2017-08-04T15:12:45.348Z,29.70
2017-08-04T15:15:13.243Z,29.60
2017-08-04T15:17:40.932Z,29.70
2017-08-04T15:20:08.663Z,29.60
2017-08-04T15:22:36.279Z,30.80
2017-08-04T15:25:03.819Z,31.70
2017-08-04T15:27:31.702Z,32.60
2017-08-04T15:29:59.286Z,34.20
2017-08-04T15:32:26.861Z,35.70
2017-08-04T15:34:54.481Z,35.10
2017-08-04T15:37:22.059Z,35.80
2017-08-04T15:39:50.159Z,37.20
2017-08-04T15:42:17.763Z,38.20
2017-08-04T15:44:45.340Z,39.10
2017-08-04T15:47:12.936Z,39.90
2017-08-04T15:49:40.506Z,40.50
2017-08-04T15:52:08.430Z,41.10
2017-08-04T15:54:36.012Z,41.30
2017-08-04T15:57:03.572Z,41.70
2017-08-04T15:59:31.259Z,42.00
2017-08-04T16:01:59.615Z,39.10
2017-08-04T16:04:27.767Z,39.10
2017-08-04T16:06:55.338Z,37.60
2017-08-04T16:09:22.902Z,36.30
2017-08-04T16:11:50.510Z,35.20
2017-08-04T16:14:18.074Z,34.20
2017-08-04T16:16:46.121Z,35.10
2017-08-04T16:19:14.468Z,38.20
2017-08-04T16:21:42.085Z,38.10
2017-08-04T16:24:09.923Z,39.00
2017-08-04T16:26:38.239Z,37.50
2017-08-04T16:29:06.272Z,37.50
2017-08-04T16:31:34.621Z,35.10
2017-08-04T16:34:02.179Z,35.10
2017-08-04T16:36:29.793Z,34.20
2017-08-04T16:38:57.355Z,33.40
2017-08-04T16:41:25.559Z,32.70
2017-08-04T16:43:53.123Z,32.00
2017-08-04T16:46:20.688Z,31.50
2017-08-04T16:48:48.297Z,31.00
2017-08-04T16:51:15.881Z,30.60
2017-08-04T16:53:43.894Z,30.20
2017-08-04T16:56:11.466Z,30.00
2017-08-04T16:58:39.037Z,29.70
2017-08-04T17:01:07.414Z,29.30
2017-08-04T17:03:34.978Z,29.20
2017-08-04T17:06:03.617Z,29.00
2017-08-04T17:08:31.297Z,29.00
2017-08-04T17:10:58.883Z,28.90
2017-08-04T17:13:26.680Z,28.80
2017-08-04T17:15:54.230Z,28.60
2017-08-04T17:18:22.197Z,28.50
2017-08-04T17:20:49.781Z,28.40
2017-08-04T17:23:17.362Z,28.30
2017-08-04T17:25:44.976Z,28.20
2017-08-04T17:28:12.535Z,28.10
2017-08-04T17:30:40.131Z,27.90
2017-08-04T17:33:07.713Z,27.90
2017-08-04T17:35:35.628Z,27.70
2017-08-04T17:38:03.201Z,27.60
2017-08-04T17:40:30.764Z,27.50
2017-08-04T17:42:58.362Z,27.40
2017-08-04T17:45:25.914Z,27.30
2017-08-04T17:47:53.897Z,27.30
2017-08-04T17:50:21.470Z,27.20
2017-08-04T17:52:49.191Z,27.10
2017-08-04T17:55:16.794Z,27.10
2017-08-04T17:57:44.366Z,27.00
2017-08-04T18:00:13.040Z,26.90
2017-08-04T18:02:52.463Z,26.80
2017-08-04T18:05:20.384Z,26.70
2017-08-04T18:07:47.958Z,26.60
2017-08-04T18:10:15.530Z,26.50
2017-08-04T18:12:43.131Z,26.40
2017-08-04T18:15:10.708Z,26.40
2017-08-04T18:17:38.626Z,26.30
2017-08-04T18:20:06.215Z,26.30
2017-08-04T18:22:34.568Z,26.10
2017-08-04T18:25:02.200Z,26.10
2017-08-04T18:27:29.751Z,26.00
2017-08-04T18:29:57.866Z,25.90
2017-08-04T18:32:25.430Z,25.90
2017-08-04T18:34:52.996Z,25.80
2017-08-04T18:37:20.627Z,25.70
2017-08-04T18:39:48.199Z,25.70
2017-08-04T18:42:16.189Z,25.60
2017-08-04T18:44:43.773Z,25.50
2017-08-04T18:47:11.364Z,25.40
2017-08-04T18:49:39.145Z,25.30
2017-08-04T18:52:06.832Z,25.30
2017-08-04T18:54:34.904Z,25.20
2017-08-04T18:57:02.480Z,25.10
2017-08-04T18:59:30.112Z,25.10
2017-08-04T19:01:58.315Z,25.00
2017-08-04T19:04:26.652Z,24.80
2017-08-04T19:06:54.204Z,24.80
2017-08-04T19:09:22.103Z,24.80
2017-08-04T19:11:49.804Z,24.80
2017-08-04T19:14:17.358Z,24.70
2017-08-04T19:16:44.957Z,24.70
2017-08-04T19:19:12.540Z,24.60
2017-08-04T19:21:40.796Z,24.60
2017-08-04T19:24:08.390Z,24.50
2017-08-04T19:26:35.983Z,24.50
2017-08-04T19:29:03.651Z,24.50
2017-08-04T19:31:31.231Z,24.40
2017-08-04T19:33:59.340Z,24.40
2017-08-04T19:36:27.722Z,24.30
2017-08-04T19:38:55.287Z,24.30
2017-08-04T19:41:23.664Z,24.20
2017-08-04T19:43:51.237Z,24.20
2017-08-04T19:46:19.915Z,24.00
2017-08-04T19:48:48.259Z,24.00
2017-08-04T19:51:15.877Z,23.90
2017-08-04T19:53:43.463Z,23.90
2017-08-04T19:56:11.039Z,23.80
2017-08-04T19:58:38.986Z,23.70
2017-08-04T20:01:06.598Z,23.70
2017-08-04T20:03:34.358Z,23.70
2017-08-04T20:06:02.420Z,23.70
2017-08-04T20:08:29.998Z,23.70
2017-08-04T20:10:57.561Z,23.70
2017-08-04T20:13:26.443Z,23.60
2017-08-04T20:15:54.781Z,23.60
2017-08-04T20:18:22.368Z,23.60
2017-08-04T20:20:50.482Z,23.60
2017-08-04T20:23:18.063Z,23.60
2017-08-04T20:25:45.633Z,23.60
2017-08-04T20:28:13.855Z,23.40
2017-08-04T20:30:42.185Z,23.40
2017-08-04T20:33:09.774Z,23.30
2017-08-04T20:35:37.385Z,23.30
2017-08-04T20:38:04.968Z,23.20
2017-08-04T20:40:32.538Z,23.20
2017-08-04T20:43:00.585Z,23.20
2017-08-04T20:45:28.194Z,23.20
2017-08-04T20:47:55.752Z,23.10
2017-08-04T20:50:23.825Z,23.10
2017-08-04T20:52:51.403Z,23.10
2017-08-04T20:55:19.105Z,23.20
2017-08-04T20:57:46.727Z,23.20
2017-08-04T21:00:14.297Z,23.20
2017-08-04T21:02:41.928Z,23.30
2017-08-04T21:05:10.320Z,23.20
2017-08-04T21:07:37.883Z,23.20
2017-08-04T21:10:06.217Z,23.20
2017-08-04T21:12:33.912Z,23.10
2017-08-04T21:15:01.468Z,23.20
2017-08-04T21:17:29.033Z,23.10
2017-08-04T21:19:56.741Z,23.10
2017-08-04T21:22:24.321Z,22.90
2017-08-04T21:24:51.885Z,22.90
2017-08-04T21:27:19.488Z,22.90
2017-08-04T21:29:47.049Z,22.90
2017-08-04T21:32:15.384Z,22.80
2017-08-04T21:34:42.998Z,22.80
2017-08-04T21:37:10.543Z,22.80
2017-08-04T21:39:38.097Z,22.80
2017-08-04T21:42:06.470Z,22.90
2017-08-04T21:44:34.146Z,22.80
2017-08-04T21:47:01.734Z,22.90
2017-08-04T21:49:29.352Z,22.80
2017-08-04T21:51:56.944Z,22.90
2017-08-04T21:54:24.781Z,22.90
2017-08-04T21:56:52.445Z,22.90
2017-08-04T21:59:20.010Z,22.90
2017-08-04T22:01:48.345Z,22.90
2017-08-04T22:04:15.963Z,22.90
2017-08-04T22:06:43.523Z,23.00
2017-08-04T22:09:11.075Z,23.00
2017-08-04T22:11:38.916Z,23.00
2017-08-04T22:14:06.882Z,23.00
2017-08-04T22:16:34.461Z,23.00
2017-08-04T22:19:02.844Z,23.10
2017-08-04T22:21:30.394Z,23.00
2017-08-04T22:23:58.723Z,23.10
2017-08-04T22:26:26.350Z,23.00
2017-08-04T22:28:54.672Z,23.00
2017-08-04T22:31:22.228Z,23.00
2017-08-04T22:33:49.836Z,23.10
2017-08-04T22:36:17.415Z,23.10
2017-08-04T22:38:44.976Z,23.10
2017-08-04T22:41:12.589Z,23.10
2017-08-04T22:43:40.226Z,23.10
2017-08-04T22:46:07.778Z,23.10
2017-08-04T22:48:35.367Z,23.10
2017-08-04T22:51:02.957Z,23.10
2017-08-04T22:53:31.311Z,23.00
2017-08-04T22:55:59.000Z,23.00
2017-08-04T22:58:26.575Z,23.10
2017-08-04T23:00:54.199Z,23.00
2017-08-04T23:03:21.855Z,23.10
2017-08-04T23:05:49.448Z,23.10
2017-08-04T23:08:17.056Z,23.00
2017-08-04T23:10:44.670Z,23.00
2017-08-04T23:13:12.358Z,23.00
2017-08-04T23:15:40.676Z,22.90
2017-08-04T23:18:08.277Z,22.90
2017-08-04T23:20:35.834Z,22.90
2017-08-04T23:23:03.417Z,22.90
2017-08-04T23:25:31.774Z,22.90
2017-08-04T23:27:59.336Z,22.90
2017-08-04T23:30:26.920Z,22.90
2017-08-04T23:32:54.585Z,22.90
2017-08-04T23:35:22.180Z,23.00
2017-08-04T23:37:49.939Z,23.00
2017-08-04T23:40:17.536Z,23.00
2017-08-04T23:42:45.117Z,23.00
2017-08-04T23:45:13.436Z,23.00
2017-08-04T23:47:41.028Z,23.00
2017-08-04T23:50:08.590Z,23.00
2017-08-04T23:52:36.155Z,23.00
2017-08-04T23:55:03.774Z,23.00
2017-08-04T23:57:31.528Z,23.00
2017-08-04T23:59:59.101Z,23.00
